Time;durP1;ratioP1;P1;durP2;ratioP2;P2;SDS_P1;SDS_P2;PMS_P1;PMS_P2;Temp;Humidity;BMP_temperature;BMP_pressure;BME280_temperature;BME280_humidity;BME280_pressure;Samples;Min_cycle;Max_cycle;Signal;HPM_P1;HPM_P2
2021/07/17 00:00:25;;;;;;;;;13.25;12.00;;;;;23.54;46.60;102148.44;5062562;28;51975;-54
2021/07/17 00:02:50;;;;;;;;;13.00;12.75;;;;;23.53;46.54;102149.50;5070964;28;51290;-53
2021/07/17 00:05:17;;;;;;;;;13.50;11.75;;;;;23.52;46.50;102153.31;5057158;28;51117;-52
2021/07/17 00:07:44;;;;;;;;;11.00;10.75;;;;;23.52;46.89;102150.56;5057567;28;51413;-53
2021/07/17 00:10:10;;;;;;;;;12.75;12.25;;;;;23.51;46.38;102151.63;5065152;28;51024;-52
2021/07/17 00:12:35;;;;;;;;;12.00;10.50;;;;;23.51;46.75;102148.84;5072669;28;51280;-52
2021/07/17 00:15:01;;;;;;;;;10.25;10.25;;;;;23.50;46.61;102147.16;5076528;28;51294;-54
2021/07/17 00:17:26;;;;;;;;;16.25;11.00;;;;;23.50;46.93;102149.94;5076419;28;51071;-52
2021/07/17 00:19:51;;;;;;;;;17.75;13.25;;;;;23.49;46.54;102156.53;5071338;28;51937;-53
2021/07/17 00:22:17;;;;;;;;;14.50;11.75;;;;;23.48;46.80;102151.22;5059953;28;51137;-54
2021/07/17 00:24:42;;;;;;;;;14.00;11.75;;;;;23.47;46.74;102155.88;5055104;28;51110;-54
2021/07/17 00:27:07;;;;;;;;;14.00;11.75;;;;;23.47;47.00;102146.75;5064309;28;51095;-53
2021/07/17 00:29:33;;;;;;;;;10.25;10.00;;;;;23.46;46.98;102154.19;5073810;28;52030;-53
2021/07/17 00:31:58;;;;;;;;;14.50;11.50;;;;;23.45;46.89;102146.09;5064191;28;51104;-54
2021/07/17 00:34:25;;;;;;;;;14.50;11.50;;;;;23.44;46.98;102145.22;5076155;28;50965;-51
2021/07/17 00:36:52;;;;;;;;;13.75;10.50;;;;;23.44;46.81;102153.53;5075944;28;51119;-54
2021/07/17 00:39:17;;;;;;;;;12.75;11.25;;;;;23.43;46.73;102146.28;5076165;28;52018;-53
2021/07/17 00:41:42;;;;;;;;;15.25;15.00;;;;;23.43;46.66;102149.06;5070326;28;51141;-52
2021/07/17 00:44:08;;;;;;;;;12.50;10.75;;;;;23.43;47.19;102151.81;5076399;28;51139;-54
2021/07/17 00:46:34;;;;;;;;;16.00;12.25;;;;;23.40;46.99;102143.97;5076605;28;51343;-52
2021/07/17 00:49:00;;;;;;;;;13.50;12.00;;;;;23.40;46.84;102148.63;5075944;28;51078;-53
2021/07/17 00:51:26;;;;;;;;;12.50;11.50;;;;;23.40;47.00;102145.88;5075420;28;51127;-54
2021/07/17 00:53:52;;;;;;;;;15.00;13.00;;;;;23.40;46.59;102154.16;5075566;28;51131;-53
2021/07/17 00:56:19;;;;;;;;;10.25;10.25;;;;;23.40;46.77;102143.97;5056735;28;51193;-52
2021/07/17 00:58:46;;;;;;;;;10.25;9.50;;;;;23.38;47.00;102148.84;5063086;28;51918;-52
2021/07/17 01:01:12;;;;;;;;;11.75;10.75;;;;;23.38;47.15;102146.09;5069103;28;51478;-52
2021/07/17 01:03:39;;;;;;;;;13.50;10.75;;;;;23.37;46.71;102152.69;5070111;28;51067;-52
2021/07/17 01:06:04;;;;;;;;;15.75;11.50;;;;;23.36;47.19;102150.97;5075418;28;51202;-51
2021/07/17 01:08:29;;;;;;;;;15.25;12.75;;;;;23.36;46.97;102163.97;5073467;28;51070;-51
2021/07/17 01:10:55;;;;;;;;;16.75;13.00;;;;;23.35;46.98;102156.72;5070947;28;51129;-53
2021/07/17 01:13:20;;;;;;;;;12.75;11.25;;;;;23.33;46.75;102148.63;5069336;28;51085;-50
2021/07/17 01:15:45;;;;;;;;;12.75;12.50;;;;;23.33;46.72;102145.84;5069113;28;51030;-51
2021/07/17 01:18:12;;;;;;;;;6.00;3.75;;;;;23.32;46.71;102149.69;5057161;28;51235;-52
2021/07/17 01:20:38;;;;;;;;;16.75;13.00;;;;;23.30;46.77;102149.91;5057786;28;51336;-52
2021/07/17 01:23:04;;;;;;;;;12.00;10.25;;;;;23.30;46.82;102152.66;5056375;28;51108;-54
2021/07/17 01:25:32;;;;;;;;;14.25;13.25;;;;;23.31;46.78;102146.06;5056232;28;51077;-52
2021/07/17 01:27:58;;;;;;;;;15.50;12.25;;;;;23.29;47.07;102145.44;5055971;28;51234;-51
2021/07/17 01:30:29;;;;;;;;;20.25;16.00;;;;;23.28;46.76;102143.72;5060467;28;51010;-53
2021/07/17 01:32:55;;;;;;;;;17.75;16.00;;;;;23.28;47.45;102140.13;5056509;28;51182;-53
2021/07/17 01:35:21;;;;;;;;;13.25;11.25;;;;;23.27;46.72;102136.50;5075164;28;51067;-53
2021/07/17 01:37:46;;;;;;;;;16.75;12.00;;;;;23.26;47.33;102140.34;5075651;28;51970;-52
2021/07/17 01:40:19;;;;;;;;;16.25;14.00;;;;;23.25;47.12;102133.09;5054472;28;51218;-54
2021/07/17 01:42:46;;;;;;;;;12.25;11.25;;;;;23.25;47.46;102135.00;5056212;28;51051;-54
2021/07/17 01:45:20;;;;;;;;;17.50;12.75;;;;;23.24;47.43;102136.03;5057453;28;51617;-53
2021/07/17 01:47:46;;;;;;;;;17.50;12.25;;;;;23.23;46.98;102126.06;5066217;28;51151;-51
2021/07/17 01:50:11;;;;;;;;;16.75;13.50;;;;;23.23;46.82;102131.59;5074248;28;51055;-50
2021/07/17 01:52:36;;;;;;;;;17.75;14.75;;;;;23.22;47.26;102135.41;5068340;28;51089;-50
2021/07/17 01:55:06;;;;;;;;;15.00;15.00;;;;;23.21;47.13;102137.31;5075656;28;51064;-54
2021/07/17 01:57:31;;;;;;;;;15.00;13.00;;;;;23.21;47.11;102130.94;5073859;28;51255;-54
2021/07/17 01:59:56;;;;;;;;;16.50;13.75;;;;;23.20;46.86;102138.38;5075371;28;51040;-53
2021/07/17 02:02:22;;;;;;;;;13.25;12.25;;;;;23.19;47.51;102131.16;5070686;28;50970;-54
2021/07/17 02:04:47;;;;;;;;;15.50;14.00;;;;;23.19;47.02;102135.84;5066967;28;50923;-53
2021/07/17 02:07:12;;;;;;;;;17.75;14.50;;;;;23.18;46.97;102136.91;5053555;28;51733;-53
2021/07/17 02:09:38;;;;;;;;;11.00;10.00;;;;;23.16;47.32;102136.28;5074913;28;50937;-54
2021/07/17 02:12:04;;;;;;;;;14.25;13.00;;;;;23.16;47.17;102139.88;5074551;28;51080;-52
2021/07/17 02:14:39;;;;;;;;;14.25;12.00;;;;;23.15;47.62;102138.19;5055625;28;51175;-52
2021/07/17 02:17:05;;;;;;;;;16.00;15.25;;;;;23.14;47.09;102138.41;5056227;28;51008;-53
2021/07/17 02:19:31;;;;;;;;;14.00;11.00;;;;;23.14;47.59;102136.47;5055212;28;50966;-53
2021/07/17 02:21:57;;;;;;;;;15.50;12.50;;;;;23.13;47.12;102126.47;5069794;28;51181;-52
2021/07/17 02:24:22;;;;;;;;;14.75;14.75;;;;;23.13;47.30;102131.13;5075362;28;51191;-53
2021/07/17 02:26:48;;;;;;;;;20.00;14.75;;;;;23.13;47.56;102131.13;5073156;28;51715;-50
2021/07/17 02:29:14;;;;;;;;;13.00;13.00;;;;;23.11;47.06;102133.25;5062954;28;51553;-52
2021/07/17 02:31:41;;;;;;;;;16.00;13.50;;;;;23.11;47.49;102136.88;5070128;28;51182;-54
2021/07/17 02:34:09;;;;;;;;;12.50;10.25;;;;;23.10;47.29;102128.81;5066684;28;51100;-52
2021/07/17 02:36:34;;;;;;;;;15.00;11.00;;;;;;;;5073167;28;51937;-53
2021/07/17 02:38:59;;;;;;;;;11.50;9.75;;;;;23.08;47.51;102125.41;5074667;28;50921;-53
2021/07/17 02:41:25;;;;;;;;;10.00;10.00;;;;;23.07;47.17;102132.84;5061132;28;51476;-51
2021/07/17 02:43:51;;;;;;;;;13.50;11.25;;;;;23.05;47.33;102140.50;5065278;28;51323;-53
2021/07/17 02:46:17;;;;;;;;;13.75;12.75;;;;;23.05;47.41;102132.22;5072502;28;51288;-52
2021/07/17 02:48:42;;;;;;;;;13.50;10.25;;;;;23.03;47.63;102137.94;5070494;28;51143;-52
2021/07/17 02:51:08;;;;;;;;;13.75;12.50;;;;;23.04;47.34;102138.78;5074391;28;51273;-52
2021/07/17 02:53:34;;;;;;;;;12.00;12.00;;;;;23.03;47.76;102129.66;5078211;28;51092;-53
2021/07/17 02:55:59;;;;;;;;;11.25;11.25;;;;;23.01;47.68;102129.00;5076587;28;51252;-53
2021/07/17 02:58:25;;;;;;;;;12.50;12.50;;;;;23.01;47.26;102122.59;5064627;28;51204;-53
2021/07/17 03:00:54;;;;;;;;;16.00;11.50;;;;;23.01;47.81;102129.00;5058883;28;51003;-54
2021/07/17 03:03:20;;;;;;;;;15.25;13.50;;;;;22.99;47.33;102131.13;5064774;28;51071;-54
2021/07/17 03:05:46;;;;;;;;;12.25;11.00;;;;;22.98;47.60;102129.41;5076078;28;51088;-52
2021/07/17 03:08:17;;;;;;;;;12.00;10.00;;;;;22.99;47.73;102141.31;5078051;28;51015;-53
2021/07/17 03:10:42;;;;;;;;;17.25;12.00;;;;;22.98;47.42;102143.22;5078035;28;50997;-54
2021/07/17 03:13:08;;;;;;;;;17.00;14.75;;;;;22.96;47.61;102142.59;5072466;28;50901;-52
2021/07/17 03:15:34;;;;;;;;;12.75;11.75;;;;;22.95;47.68;102140.91;5065881;28;51198;-53
2021/07/17 03:18:00;;;;;;;;;10.75;10.00;;;;;22.95;47.53;102140.91;5076275;28;51230;-52
2021/07/17 03:20:26;;;;;;;;;10.75;10.50;;;;;22.94;47.21;102139.19;5058791;28;52336;-53
2021/07/17 03:22:51;;;;;;;;;13.00;11.00;;;;;22.93;47.70;102137.50;5058786;28;51222;-53
2021/07/17 03:25:16;;;;;;;;;11.50;11.50;;;;;22.93;47.26;102145.78;5077001;28;52959;-52
2021/07/17 03:27:41;;;;;;;;;13.25;13.00;;;;;22.91;47.91;102144.25;5072061;28;51124;-53
2021/07/17 03:30:08;;;;;;;;;13.25;11.25;;;;;22.91;47.72;102144.25;5076019;28;51356;-52
2021/07/17 03:32:33;;;;;;;;;13.75;11.75;;;;;22.91;47.49;102144.25;5073470;28;51029;-52
2021/07/17 03:34:59;;;;;;;;;9.75;9.25;;;;;22.88;47.63;102139.16;5057994;28;51082;-51
2021/07/17 03:37:24;;;;;;;;;14.00;11.75;;;;;22.89;47.38;102141.72;5059406;28;51127;-53
2021/07/17 03:39:51;;;;;;;;;16.25;11.50;;;;;22.88;47.58;102147.44;5060881;28;51250;-53
2021/07/17 03:42:16;;;;;;;;;14.25;13.00;;;;;22.87;47.79;102146.59;5078233;28;51031;-52
2021/07/17 03:44:41;;;;;;;;;16.50;12.75;;;;;22.86;47.59;102142.13;5076790;28;55590;-53
2021/07/17 03:47:07;;;;;;;;;13.75;12.75;;;;;22.87;47.93;102141.06;5076569;28;51196;-52
2021/07/17 03:49:32;;;;;;;;;15.75;13.25;;;;;22.86;47.59;102146.81;5073465;28;51160;-52
2021/07/17 03:51:57;;;;;;;;;10.00;10.00;;;;;22.85;47.30;102140.44;5077824;28;51517;-53
2021/07/17 03:54:23;;;;;;;;;15.25;13.50;;;;;22.84;47.98;102137.88;5077293;28;52821;-53
2021/07/17 03:56:48;;;;;;;;;11.50;10.75;;;;;22.83;47.65;102136.16;5076095;28;51047;-53
2021/07/17 03:59:14;;;;;;;;;14.00;12.25;;;;;22.83;47.33;102138.91;5077594;28;50991;-52
2021/07/17 04:01:39;;;;;;;;;16.25;11.25;;;;;22.82;47.94;102151.84;5072529;28;51148;-53
2021/07/17 04:04:05;;;;;;;;;16.00;12.75;;;;;22.83;47.85;102152.72;5065508;28;51106;-53
2021/07/17 04:06:31;;;;;;;;;12.25;11.75;;;;;22.81;47.43;102147.38;5058755;28;51200;-53
2021/07/17 04:08:56;;;;;;;;;14.50;12.50;;;;;22.80;47.90;102153.13;5039954;28;51495;-53
2021/07/17 04:11:22;;;;;;;;;12.00;10.00;;;;;22.80;47.75;102153.97;5071497;28;50956;-49
2021/07/17 04:13:47;;;;;;;;;14.75;11.75;;;;;22.79;47.56;102157.78;5054108;28;51071;-51
2021/07/17 04:16:12;;;;;;;;;14.75;13.75;;;;;22.80;47.81;102165.00;5058834;28;51167;-54
2021/07/17 04:18:38;;;;;;;;;12.75;11.25;;;;;22.79;47.40;102159.69;5057199;28;51206;-50
2021/07/17 04:21:03;;;;;;;;;13.25;12.00;;;;;22.79;48.02;102154.19;5061157;28;51020;-51
2021/07/17 04:23:28;;;;;;;;;13.75;11.75;;;;;22.78;47.43;102156.09;5077182;28;51055;-53
2021/07/17 04:25:54;;;;;;;;;16.00;12.25;;;;;22.76;47.90;102153.53;5067570;28;51288;-52
2021/07/17 04:28:19;;;;;;;;;14.75;10.00;;;;;22.77;48.01;102159.91;5057070;28;51059;-52
2021/07/17 04:30:45;;;;;;;;;15.50;14.25;;;;;22.75;47.58;102160.13;5066470;28;51136;-53
2021/07/17 04:33:10;;;;;;;;;9.00;9.00;;;;;22.75;47.75;102159.28;5077060;28;51811;-53
2021/07/17 04:35:35;;;;;;;;;13.00;11.00;;;;;22.74;48.10;102154.81;5075594;28;51102;-53
2021/07/17 04:38:01;;;;;;;;;13.25;11.25;;;;;22.74;47.94;102163.09;5074191;28;51016;-53
2021/07/17 04:40:26;;;;;;;;;12.00;9.75;;;;;22.72;47.45;102155.03;5067052;28;51029;-53
2021/07/17 04:42:51;;;;;;;;;14.25;11.50;;;;;22.72;48.01;102151.41;5076591;28;52093;-52
2021/07/17 04:45:17;;;;;;;;;12.50;11.75;;;;;22.71;47.48;102155.19;5066629;28;51152;-52
2021/07/17 04:47:42;;;;;;;;;14.00;11.00;;;;;22.71;48.03;102157.97;5057341;28;51544;-50
2021/07/17 04:50:08;;;;;;;;;14.25;11.75;;;;;22.70;47.90;102159.03;5057547;28;50915;-53
2021/07/17 04:52:34;;;;;;;;;13.75;11.75;;;;;22.70;47.66;102159.03;5072912;28;52138;-52
2021/07/17 04:54:59;;;;;;;;;11.50;9.50;;;;;22.69;47.78;102158.16;5057869;28;51162;-51
2021/07/17 04:57:25;;;;;;;;;12.75;11.25;;;;;22.68;47.79;102167.50;5057023;28;51342;-49
2021/07/17 04:59:50;;;;;;;;;12.75;11.50;;;;;22.68;47.59;102173.03;5069336;28;51068;-52
2021/07/17 05:02:15;;;;;;;;;12.00;12.00;;;;;22.68;47.96;102170.28;5069313;28;51932;-51
2021/07/17 05:04:41;;;;;;;;;14.25;12.25;;;;;22.68;48.00;102169.44;5060390;28;51031;-52
2021/07/17 05:07:06;;;;;;;;;12.50;12.00;;;;;22.67;48.01;102176.88;5056963;28;51624;-52
2021/07/17 05:09:31;;;;;;;;;10.75;9.75;;;;;22.67;47.72;102181.53;5065577;28;51149;-54
2021/07/17 05:11:57;;;;;;;;;12.25;12.00;;;;;22.66;48.13;102177.06;5071810;28;51143;-52
2021/07/17 05:14:22;;;;;;;;;17.50;14.00;;;;;22.65;48.25;102189.19;5057884;28;50906;-52
2021/07/17 05:16:47;;;;;;;;;15.00;13.50;;;;;22.65;47.52;102183.66;5064823;28;51051;-53
2021/07/17 05:19:13;;;;;;;;;14.50;12.75;;;;;22.64;48.26;102182.81;5056822;28;51052;-52
2021/07/17 05:21:38;;;;;;;;;17.50;16.00;;;;;22.65;47.94;102178.13;5074643;28;51163;-50
2021/07/17 05:24:04;;;;;;;;;12.00;12.00;;;;;22.63;47.88;102174.72;5068666;28;51156;-51
2021/07/17 05:26:30;;;;;;;;;12.25;11.25;;;;;22.62;47.81;102173.03;5056598;28;51096;-51
2021/07/17 05:28:55;;;;;;;;;16.50;13.25;;;;;22.62;47.61;102173.03;5056804;28;51248;-52
2021/07/17 05:31:20;;;;;;;;;14.25;12.75;;;;;22.62;48.19;102178.56;5071668;28;50981;-51
2021/07/17 05:33:46;;;;;;;;;20.75;15.00;;;;;22.60;47.86;102178.72;5074769;28;51201;-51
2021/07/17 05:36:11;;;;;;;;;12.25;11.25;;;;;22.60;48.09;102177.88;5076063;28;51043;-53
2021/07/17 05:38:37;;;;;;;;;12.25;11.75;;;;;22.60;48.23;102170.44;5058875;28;51772;-52
2021/07/17 05:41:02;;;;;;;;;18.50;15.75;;;;;22.60;47.75;102173.22;5055968;28;52170;-53
2021/07/17 05:43:28;;;;;;;;;16.50;14.00;;;;;22.60;47.88;102166.84;5074046;28;51184;-54
2021/07/17 05:45:54;;;;;;;;;13.50;12.00;;;;;22.59;48.30;102162.38;5076322;28;50997;-52
2021/07/17 05:48:20;;;;;;;;;17.25;14.75;;;;;22.60;48.41;102169.59;5061266;28;50995;-52
2021/07/17 05:50:48;;;;;;;;;16.25;13.25;;;;;22.58;48.14;102166.19;5057223;28;51690;-52
2021/07/17 05:53:13;;;;;;;;;13.50;12.50;;;;;22.57;48.03;102172.78;5055923;28;51056;-51
2021/07/17 05:55:39;;;;;;;;;15.00;10.50;;;;;22.57;48.12;102172.78;5061297;28;51056;-53
2021/07/17 05:58:04;;;;;;;;;12.25;12.00;;;;;22.56;48.24;102173.84;5063127;28;51111;-53
2021/07/17 06:00:29;;;;;;;;;13.50;13.25;;;;;22.56;48.34;102173.84;5057062;28;52394;-51
2021/07/17 06:02:54;;;;;;;;;16.75;15.00;;;;;22.56;47.92;102173.84;5064339;28;51050;-51
2021/07/17 06:05:20;;;;;;;;;15.25;11.25;;;;;22.55;48.02;102172.97;5068636;28;51179;-54
2021/07/17 06:07:45;;;;;;;;;13.25;12.00;;;;;22.55;48.04;102172.13;5065665;28;50927;-54
2021/07/17 06:10:11;;;;;;;;;14.75;14.50;;;;;22.55;48.46;102178.50;5072006;28;57047;-51
2021/07/17 06:12:36;;;;;;;;;15.50;12.00;;;;;22.55;48.17;102172.13;5037904;28;51546;-52
2021/07/17 06:15:03;;;;;;;;;11.00;11.00;;;;;22.54;48.37;102173.19;5055672;28;51195;-50
2021/07/17 06:17:29;;;;;;;;;16.25;11.75;;;;;22.53;47.93;102169.59;5062452;28;51262;-51
2021/07/17 06:19:54;;;;;;;;;16.25;13.25;;;;;22.54;48.18;102167.66;5061973;28;52068;-50
2021/07/17 06:22:19;;;;;;;;;16.50;14.00;;;;;22.53;48.64;102172.34;5069156;28;51095;-49
2021/07/17 06:24:45;;;;;;;;;14.25;14.00;;;;;22.53;48.46;102174.25;5066680;28;51359;-50
2021/07/17 06:27:10;;;;;;;;;14.25;13.50;;;;;22.52;48.09;102172.56;5060185;28;51090;-53
2021/07/17 06:29:36;;;;;;;;;14.25;14.25;;;;;22.52;48.06;102169.78;5073368;28;52671;-49
2021/07/17 06:32:03;;;;;;;;;13.50;10.00;;;;;22.51;48.49;102179.97;5075115;28;51354;-50
2021/07/17 06:34:28;;;;;;;;;16.50;13.00;;;;;22.50;48.64;102178.25;5069909;28;51238;-50
2021/07/17 06:36:53;;;;;;;;;16.00;14.00;;;;;22.51;48.72;102192.91;5055552;28;51294;-52
2021/07/17 06:39:19;;;;;;;;;17.25;14.25;;;;;22.50;48.34;102189.28;5056109;28;52473;-53
2021/07/17 06:41:45;;;;;;;;;17.75;14.00;;;;;22.50;48.16;102188.44;5069608;28;51831;-52
2021/07/17 06:44:10;;;;;;;;;16.25;14.50;;;;;22.49;48.49;102190.34;5062638;28;51048;-54
2021/07/17 06:46:35;;;;;;;;;17.75;12.25;;;;;22.48;48.79;102186.75;5055471;28;51028;-52
2021/07/17 06:49:01;;;;;;;;;15.25;15.25;;;;;22.48;48.89;102192.25;5056487;28;51222;-54
2021/07/17 06:51:26;;;;;;;;;15.25;14.00;;;;;22.48;48.92;102196.94;5073544;28;51084;-52
2021/07/17 06:53:52;;;;;;;;;18.75;14.25;;;;;22.48;48.33;102191.41;5075145;28;51036;-52
2021/07/17 06:56:17;;;;;;;;;15.00;13.00;;;;;22.48;48.87;102196.94;5057898;28;51084;-56
2021/07/17 06:58:43;;;;;;;;;16.50;15.50;;;;;22.47;48.99;102196.09;5064683;28;52639;-52
2021/07/17 07:01:08;;;;;;;;;17.00;15.25;;;;;22.48;48.45;102196.94;5064676;28;51123;-51
2021/07/17 07:03:34;;;;;;;;;14.25;14.25;;;;;22.47;48.49;102198.84;5074754;28;52055;-51
2021/07/17 07:05:59;;;;;;;;;16.00;14.25;;;;;22.48;48.96;102200.53;5055930;28;51001;-54
2021/07/17 07:08:25;;;;;;;;;12.75;12.00;;;;;22.50;48.75;102202.25;5054641;28;51007;-51
2021/07/17 07:10:51;;;;;;;;;15.25;14.25;;;;;22.50;50.58;102196.72;5066033;28;51168;-52
2021/07/17 07:13:17;;;;;;;;;12.75;9.75;;;;;22.53;51.12;102204.63;5067275;28;51134;-55
2021/07/17 07:15:43;;;;;;;;;17.25;12.50;;;;;22.56;50.59;102202.31;5074987;28;51025;-54
2021/07/17 07:18:08;;;;;;;;;15.00;14.50;;;;;22.57;49.51;102198.47;5069556;28;53020;-54
2021/07/17 07:20:34;;;;;;;;;16.25;14.00;;;;;22.59;49.65;102201.88;5057877;28;51010;-55
2021/07/17 07:23:02;;;;;;;;;17.00;14.00;;;;;22.60;49.66;102206.34;5056888;28;51159;-53
2021/07/17 07:25:27;;;;;;;;;17.50;13.50;;;;;22.59;49.61;102203.78;5060996;28;52399;-57
2021/07/17 07:27:52;;;;;;;;;14.00;12.75;;;;;22.59;49.27;102212.09;5063784;28;51711;-54
2021/07/17 18:04:55;;;;;;;;;18.00;16.25;;;;;25.30;54.44;101932.97;5384744;23;52225;-60
2021/07/17 18:07:20;;;;;;;;;18.00;16.00;;;;;25.30;54.01;101929.34;4985088;28;51868;-60
2021/07/17 18:09:45;;;;;;;;;19.50;13.50;;;;;25.29;54.01;101931.28;4989536;28;51281;-59
2021/07/17 18:12:11;;;;;;;;;17.00;15.00;;;;;25.30;54.23;101927.41;4973338;28;51628;-59
2021/07/17 18:14:38;;;;;;;;;17.75;15.25;;;;;25.29;54.14;101924.88;4990511;28;51120;-59
2021/07/17 18:17:06;;;;;;;;;14.25;12.50;;;;;25.28;53.94;101929.56;4989806;28;51119;-60
2021/07/17 18:19:32;;;;;;;;;16.50;16.50;;;;;25.26;53.83;101928.97;4989866;28;51399;-59
2021/07/17 18:21:57;;;;;;;;;17.25;15.50;;;;;25.26;54.11;101928.13;4990898;28;51213;-59
2021/07/17 18:24:23;;;;;;;;;14.25;13.75;;;;;25.25;53.83;101930.03;4990070;28;51203;-60
2021/07/17 18:26:49;;;;;;;;;17.75;16.00;;;;;25.24;53.89;101931.13;4988969;28;51097;-59
2021/07/17 18:29:15;;;;;;;;;13.00;13.00;;;;;25.24;53.86;101936.66;4991364;28;51138;-59
2021/07/17 18:31:41;;;;;;;;;14.75;14.75;;;;;25.23;53.63;101934.97;4992711;28;51162;-59
2021/07/17 18:34:06;;;;;;;;;19.50;14.50;;;;;25.23;53.71;101934.97;4993389;28;51238;-60
2021/07/17 18:36:31;;;;;;;;;15.25;14.50;;;;;25.22;53.63;101938.81;4993481;28;51086;-60
2021/07/17 18:38:57;;;;;;;;;11.75;11.75;;;;;25.21;53.43;101942.66;4992753;28;50987;-59
2021/07/17 18:41:23;;;;;;;;;11.75;11.75;;;;;25.21;53.54;101948.19;4993931;28;51157;-61
2021/07/17 18:43:49;;;;;;;;;14.00;13.00;;;;;25.20;53.71;101943.72;4991794;28;51130;-60
2021/07/17 18:46:15;;;;;;;;;12.75;12.75;;;;;25.21;53.45;101945.41;4989267;28;52159;-60
2021/07/17 18:48:41;;;;;;;;;14.75;14.25;;;;;25.21;53.39;101936.25;4993262;28;51147;-61
2021/07/17 18:51:06;;;;;;;;;13.00;12.50;;;;;25.19;53.56;101942.03;4991083;28;51045;-63
2021/07/17 18:53:32;;;;;;;;;15.00;13.25;;;;;25.18;53.42;101943.09;4992297;28;51062;-60
2021/07/17 18:55:58;;;;;;;;;16.75;13.50;;;;;25.18;53.41;101943.09;4993298;28;52059;-60
2021/07/17 18:58:24;;;;;;;;;13.50;11.50;;;;;25.17;52.83;101944.19;4993843;28;51083;-60
2021/07/17 19:00:49;;;;;;;;;11.00;10.50;;;;;25.18;53.22;101947.81;4993431;28;51210;-62
2021/07/17 19:03:15;;;;;;;;;13.25;13.00;;;;;25.17;53.25;101946.13;4991109;28;51140;-59
2021/07/17 19:05:40;;;;;;;;;13.50;13.00;;;;;25.15;53.07;101946.34;4969624;28;51410;-61
2021/07/17 19:08:06;;;;;;;;;12.00;10.00;;;;;25.14;53.22;101941.88;4990271;28;51230;-61
2021/07/17 19:10:31;;;;;;;;;13.50;13.50;;;;;25.14;53.16;101947.44;4989408;28;51186;-61
2021/07/17 19:12:57;;;;;;;;;13.50;12.25;;;;;25.14;53.15;101949.34;4992603;28;51060;-60
2021/07/17 19:15:22;;;;;;;;;13.00;10.75;;;;;25.11;52.96;101947.00;4992357;28;51039;-60
2021/07/17 19:17:48;;;;;;;;;15.00;12.50;;;;;25.12;53.04;101954.28;4989005;28;51088;-59
2021/07/17 19:20:19;;;;;;;;;16.75;12.75;;;;;25.11;53.17;101949.78;4995569;28;51118;-60
2021/07/17 19:22:50;;;;;;;;;13.75;12.50;;;;;25.11;53.28;101947.00;4994118;28;51158;-60
2021/07/17 19:25:17;;;;;;;;;10.75;10.75;;;;;25.11;52.86;101949.78;4991310;28;51087;-60
2021/07/17 19:27:42;;;;;;;;;15.00;13.75;;;;;25.10;53.11;101948.94;4985324;28;51548;-61
2021/07/17 19:30:10;;;;;;;;;14.75;10.25;;;;;25.08;52.96;101948.31;4994690;28;51684;-61
2021/07/17 19:32:37;;;;;;;;;11.25;11.25;;;;;25.07;53.20;101952.16;4995751;28;51359;-60
2021/07/17 19:35:03;;;;;;;;;14.75;13.25;;;;;25.07;53.13;101954.94;4994570;28;51898;-62
2021/07/17 19:37:28;;;;;;;;;11.00;11.00;;;;;25.07;53.01;101956.88;4991280;28;51243;-60
2021/07/17 19:39:54;;;;;;;;;13.25;12.00;;;;;25.06;52.97;101955.19;4996112;28;51050;-63
2021/07/17 19:42:19;;;;;;;;;16.00;14.00;;;;;25.03;52.91;101957.34;4995352;28;51274;-60
2021/07/17 19:44:45;;;;;;;;;11.75;11.75;;;;;25.01;52.95;101956.72;4996065;28;51966;-60
2021/07/17 19:47:10;;;;;;;;;16.00;12.50;;;;;25.01;53.06;101964.13;4992733;28;51203;-59
2021/07/17 19:49:36;;;;;;;;;12.50;12.50;;;;;25.00;52.86;101957.72;4995116;28;51474;-59
2021/07/17 19:52:02;;;;;;;;;17.00;14.75;;;;;24.99;52.88;101969.91;4994373;28;51031;-59
2021/07/17 19:54:27;;;;;;;;;11.25;11.25;;;;;24.98;52.87;101962.66;4993476;28;51283;-59
2021/07/17 19:56:52;;;;;;;;;11.25;11.25;;;;;24.98;52.91;101964.59;4989539;28;51007;-59
2021/07/17 19:59:18;;;;;;;;;10.75;10.75;;;;;24.97;52.99;101969.28;4989438;28;51168;-59
2021/07/17 20:01:44;;;;;;;;;11.75;11.25;;;;;24.96;52.78;101962.03;4990010;28;51267;-59
2021/07/17 20:04:10;;;;;;;;;10.25;9.75;;;;;24.96;52.84;101967.59;4993130;28;51298;-60
2021/07/17 20:06:35;;;;;;;;;17.00;13.75;;;;;24.95;53.03;101970.59;4996127;28;51114;-60
2021/07/17 20:09:01;;;;;;;;;14.25;12.25;;;;;24.95;52.91;101971.44;4975747;28;50953;-60
2021/07/17 20:11:26;;;;;;;;;15.00;12.00;;;;;24.95;52.74;101965.88;5000645;28;51168;-60
2021/07/17 20:13:52;;;;;;;;;13.50;13.50;;;;;24.94;52.95;101972.50;4991880;28;51141;-60
2021/07/17 20:16:17;;;;;;;;;12.75;12.75;;;;;24.94;52.85;101974.44;4997194;28;51067;-59
2021/07/17 20:18:42;;;;;;;;;16.25;14.00;;;;;24.95;52.98;101973.34;4992427;28;51119;-59
2021/07/17 20:21:08;;;;;;;;;11.75;10.50;;;;;24.94;52.84;101974.44;4993868;28;51161;-58
2021/07/17 20:23:33;;;;;;;;;13.00;12.00;;;;;24.93;52.91;101973.59;4995224;28;51733;-58
2021/07/17 20:25:59;;;;;;;;;14.75;12.75;;;;;24.94;52.83;101979.97;4995131;28;51767;-59
2021/07/17 20:28:25;;;;;;;;;13.00;11.00;;;;;24.95;52.95;101984.44;4994639;28;51085;-59
2021/07/17 20:30:50;;;;;;;;;16.00;16.00;;;;;24.95;53.10;101987.22;4993094;28;51282;-59
2021/07/17 20:33:16;;;;;;;;;11.75;11.25;;;;;24.95;53.06;101982.53;4992431;28;51857;-59
2021/07/17 20:35:42;;;;;;;;;12.75;12.25;;;;;24.94;52.83;101989.13;4994970;28;51222;-59
2021/07/17 20:38:08;;;;;;;;;17.25;11.75;;;;;24.95;52.77;101990.00;4995587;28;51134;-59
2021/07/17 20:40:33;;;;;;;;;16.50;14.00;;;;;24.94;52.71;101993.84;4994000;28;51147;-58
2021/07/17 20:42:59;;;;;;;;;16.50;11.75;;;;;24.92;52.94;101987.69;4992953;28;51114;-58
2021/07/17 20:45:27;;;;;;;;;14.25;11.00;;;;;24.94;52.95;101993.84;4990648;28;51074;-59
2021/07/17 20:47:54;;;;;;;;;13.50;12.75;;;;;24.94;52.90;101989.13;4995091;28;51143;-60
2021/07/17 20:50:20;;;;;;;;;16.25;15.50;;;;;24.93;52.87;101981.91;4991515;28;51182;-59
2021/07/17 20:52:45;;;;;;;;;14.00;12.50;;;;;24.93;52.73;101983.81;4992501;28;51158;-60
2021/07/17 20:55:14;;;;;;;;;11.75;11.00;;;;;24.92;53.10;101982.97;4973879;28;51873;-60
2021/07/17 20:57:41;;;;;;;;;14.25;11.75;;;;;24.94;52.96;101988.28;4994799;28;50990;-61
2021/07/17 21:00:08;;;;;;;;;13.00;12.75;;;;;24.94;52.97;101993.84;4992762;28;51416;-60
2021/07/17 21:02:33;;;;;;;;;14.00;11.25;;;;;24.94;52.90;101989.13;4993061;28;51830;-60
2021/07/17 21:04:58;;;;;;;;;12.25;12.25;;;;;24.94;52.79;101991.06;4991813;28;51177;-61
2021/07/17 21:07:24;;;;;;;;;15.25;13.25;;;;;24.95;52.63;101987.22;4992975;28;51127;-61
2021/07/17 21:09:49;;;;;;;;;11.50;11.25;;;;;24.96;52.72;101988.91;4994126;28;51351;-61
2021/07/17 21:12:14;;;;;;;;;12.00;11.50;;;;;24.96;52.84;101991.69;4992768;28;51091;-61
2021/07/17 21:14:39;;;;;;;;;13.50;13.50;;;;;24.97;52.67;101990.59;4993837;28;51268;-60
2021/07/17 21:17:05;;;;;;;;;10.75;10.75;;;;;24.97;52.94;102004.47;4993881;28;51157;-59
2021/07/17 21:19:30;;;;;;;;;11.75;10.00;;;;;24.97;52.76;101996.16;4993808;28;51067;-60
2021/07/17 21:21:56;;;;;;;;;12.75;12.75;;;;;24.97;53.01;101990.59;4992140;28;51138;-58
2021/07/17 21:24:21;;;;;;;;;10.75;10.75;;;;;24.96;52.80;101987.00;4992872;28;51119;-58
2021/07/17 21:26:46;;;;;;;;;10.50;10.50;;;;;24.97;52.60;101993.38;4993781;28;51470;-58
2021/07/17 21:29:12;;;;;;;;;9.50;8.25;;;;;24.96;52.36;101991.69;4995088;28;51368;-58
2021/07/17 21:31:37;;;;;;;;;12.50;10.00;;;;;24.96;52.56;101991.69;4994941;28;51931;-58
2021/07/17 21:34:03;;;;;;;;;12.00;10.00;;;;;24.94;52.10;101991.91;4994579;28;51065;-58
2021/07/17 21:36:29;;;;;;;;;9.75;9.75;;;;;24.93;52.38;101990.22;4995091;28;51004;-59